MAPA DE AEROPUERTO

INFORMACIÓN METAR y TAF


Deprecated: The each() function is deprecated. This message will be suppressed on further calls in /home/customer/www/clickair-va.com/public_html/VAM/vam/helpers/get_metar.php on line 20
METAR FOR EGPD
ADDS - METARS form results

(1835 UTC 27 January 2023)
Data provider http://aviationweather.gov/metar/data/
 
METAR text: EGPD 271820Z AUTO 17004KT 110V210 9999 NCD 01/M01 Q1026
Conditions at: EGPD (ABERDEEN/DYCE , GB) observed 1820 UTC 27 January 2023
Temperature: 1.0°C (34°F)
Dewpoint: -1.0°C (30°F) [RH = 86%]
Pressure (altimeter): 30.30 inches Hg (1026.0 mb)
Winds: from the S (170 degrees) at 5 MPH (4 knots; 2.1 m/s)
Visibility: 6 or more miles (10+ km)
Ceiling: at least 12,000 feet AGL
Clouds: sky clear below 12,000 feet AGL
Weather: no significant weather observed at this time

METAR text: EGPD 271750Z AUTO 09003KT 040V130 9999 NCD 00/M01 Q1026 NOSIG
Conditions at: EGPD (ABERDEEN/DYCE , GB) observed 1750 UTC 27 January 2023
Temperature: 0.0°C (32°F)
Dewpoint: -1.0°C (30°F) [RH = 93%]
Pressure (altimeter): 30.30 inches Hg (1026.0 mb)
Winds: from the E (90 degrees) at 3 MPH (3 knots; 1.5 m/s)
Visibility: 6 or more miles (10+ km)
Ceiling: at least 12,000 feet AGL
Clouds: sky clear below 12,000 feet AGL
Weather: no significant weather observed at this time

Forecast for: EGPD (ABERDEEN/DYCE , GB)
Text: TAF EGPD 271655Z 2718/2818 VRB03KT 9999 FEW024
Forecast period: 1800 UTC 27 January 2023 to 0000 UTC 28 January 2023
Forecast type: FROM: standard forecast or significant change
Winds: variable direction winds at 3 MPH (3 knots; 1.5 m/s)
Visibility: 6 or more miles (10+ km)
Ceiling: at least 12,000 feet AGL
Clouds: few clouds at 2400 feet AGL
Weather: no significant weather forecast for this period
Text: TEMPO 2722/2802 7000 -RA BKN012
Forecast period: 2200 UTC 27 January 2023 to 0200 UTC 28 January 2023
Forecast type: TEMPORARY: The following changes expected for less than half the time period
Visibility: 4 miles (7 km)
Ceiling: 1200 feet AGL
Clouds: broken clouds at 1200 feet AGL
Weather: -RA  (light rain)
Text: BECMG 2800/2803 27010KT
Forecast period: 0000 to 1800 UTC 28 January 2023
Forecast type: BECOMING: Conditions expected to become as follows by 0300 UTC 28 January 2023
Winds: from the W (270 degrees) at 12 MPH (10 knots; 5.1 m/s)
Visibility: 6 or more miles (10+ km)
Ceiling: at least 12,000 feet AGL
Clouds: few clouds at 2400 feet AGL
Weather: no significant weather forecast for this period